sensor_id;sensor_type;location;lat;lon;timestamp;pressure;altitude;pressure_sealevel;temperature;humidity
6094;BME280;19964;42.060;24.700;2023-07-22T00:00:28;97377.94;;;23.97;81.28
6094;BME280;19964;42.060;24.700;2023-07-22T00:02:55;97371.84;;;23.62;82.34
6094;BME280;19964;42.060;24.700;2023-07-22T00:05:22;97366.41;;;23.59;82.85
6094;BME280;19964;42.060;24.700;2023-07-22T00:07:51;97379.97;;;23.83;81.54
6094;BME280;19964;42.060;24.700;2023-07-22T00:10:18;97383.06;;;23.94;81.03
6094;BME280;19964;42.060;24.700;2023-07-22T00:12:45;97383.38;;;23.83;80.50
6094;BME280;19964;42.060;24.700;2023-07-22T00:15:11;97390.53;;;23.66;81.85
6094;BME280;19964;42.060;24.700;2023-07-22T00:17:38;97381.53;;;23.50;82.95
6094;BME280;19964;42.060;24.700;2023-07-22T00:20:06;97363.63;;;23.38;83.19
6094;BME280;19964;42.060;24.700;2023-07-22T00:22:36;97364.22;;;23.35;83.60
6094;BME280;19964;42.060;24.700;2023-07-22T00:25:06;97371.34;;;23.26;84.03
6094;BME280;19964;42.060;24.700;2023-07-22T00:27:35;97378.03;;;23.15;85.22
6094;BME280;19964;42.060;24.700;2023-07-22T00:30:03;97385.94;;;23.15;85.20
6094;BME280;19964;42.060;24.700;2023-07-22T00:32:30;97322.00;;;22.48;86.99
6094;BME280;19964;42.060;24.700;2023-07-22T00:34:57;97387.09;;;22.92;86.56
6094;BME280;19964;42.060;24.700;2023-07-22T00:37:24;97375.06;;;22.60;88.43
6094;BME280;19964;42.060;24.700;2023-07-22T00:39:51;97378.06;;;22.76;87.88
6094;BME280;19964;42.060;24.700;2023-07-22T00:42:20;97371.72;;;22.85;86.77
6094;BME280;19964;42.060;24.700;2023-07-22T00:44:47;97377.69;;;22.99;85.87
6094;BME280;19964;42.060;24.700;2023-07-22T00:47:14;97391.88;;;22.73;87.37
6094;BME280;19964;42.060;24.700;2023-07-22T00:49:42;97375.91;;;22.56;88.52
6094;BME280;19964;42.060;24.700;2023-07-22T00:52:10;97397.28;;;22.68;87.92
6094;BME280;19964;42.060;24.700;2023-07-22T00:54:37;97401.47;;;22.69;87.71
6094;BME280;19964;42.060;24.700;2023-07-22T00:57:04;97401.47;;;22.69;87.12
6094;BME280;19964;42.060;24.700;2023-07-22T00:59:32;97410.25;;;22.78;86.24
6094;BME280;19964;42.060;24.700;2023-07-22T01:01:59;97417.41;;;22.86;85.94
6094;BME280;19964;42.060;24.700;2023-07-22T01:04:25;97417.75;;;22.93;85.66
6094;BME280;19964;42.060;24.700;2023-07-22T01:06:52;97414.44;;;22.79;86.85
6094;BME280;19964;42.060;24.700;2023-07-22T01:09:19;97412.00;;;22.91;85.96
6094;BME280;19964;42.060;24.700;2023-07-22T01:11:46;97420.13;;;23.12;84.75
6094;BME280;19964;42.060;24.700;2023-07-22T01:14:13;97419.69;;;23.18;84.62
6094;BME280;19964;42.060;24.700;2023-07-22T01:16:41;97413.78;;;23.21;84.38
6094;BME280;19964;42.060;24.700;2023-07-22T01:19:08;97414.97;;;22.98;84.80
6094;BME280;19964;42.060;24.700;2023-07-22T01:21:35;97415.09;;;22.93;85.71
6094;BME280;19964;42.060;24.700;2023-07-22T01:24:04;97410.72;;;22.88;85.55
6094;BME280;19964;42.060;24.700;2023-07-22T01:26:31;97422.88;;;22.98;85.19
6094;BME280;19964;42.060;24.700;2023-07-22T01:29:04;97420.59;;;23.14;84.49
6094;BME280;19964;42.060;24.700;2023-07-22T01:31:34;97424.66;;;23.20;84.35
6094;BME280;19964;42.060;24.700;2023-07-22T01:34:00;97417.97;;;23.14;84.44
6094;BME280;19964;42.060;24.700;2023-07-22T01:36:29;97412.19;;;23.03;84.94
6094;BME280;19964;42.060;24.700;2023-07-22T01:38:55;97420.09;;;22.94;85.37
6094;BME280;19964;42.060;24.700;2023-07-22T01:41:23;97420.41;;;23.01;85.16
6094;BME280;19964;42.060;24.700;2023-07-22T01:43:50;97422.28;;;23.01;85.74
6094;BME280;19964;42.060;24.700;2023-07-22T01:46:17;97423.84;;;23.02;85.59
6094;BME280;19964;42.060;24.700;2023-07-22T01:48:43;97420.75;;;22.47;88.69
6094;BME280;19964;42.060;24.700;2023-07-22T01:51:10;97426.84;;;22.48;89.34
6094;BME280;19964;42.060;24.700;2023-07-22T01:53:36;97432.84;;;22.62;88.94
6094;BME280;19964;42.060;24.700;2023-07-22T01:56:03;97436.50;;;22.52;90.22
6094;BME280;19964;42.060;24.700;2023-07-22T01:58:32;97437.47;;;22.56;89.59
6094;BME280;19964;42.060;24.700;2023-07-22T02:00:58;97442.19;;;22.46;90.58
6094;BME280;19964;42.060;24.700;2023-07-22T02:03:25;97431.22;;;22.08;92.65
6094;BME280;19964;42.060;24.700;2023-07-22T02:05:52;97433.09;;;22.30;91.45
6094;BME280;19964;42.060;24.700;2023-07-22T02:08:19;97452.81;;;22.54;90.24
6094;BME280;19964;42.060;24.700;2023-07-22T02:10:46;97454.31;;;22.69;89.89
6094;BME280;19964;42.060;24.700;2023-07-22T02:13:12;97441.47;;;22.76;89.54
6094;BME280;19964;42.060;24.700;2023-07-22T02:15:42;97444.50;;;22.39;90.72
6094;BME280;19964;42.060;24.700;2023-07-22T02:18:08;97442.19;;;22.24;92.15
6094;BME280;19964;42.060;24.700;2023-07-22T02:20:35;97440.47;;;22.19;92.89
6094;BME280;19964;42.060;24.700;2023-07-22T02:23:01;97436.00;;;22.20;93.18
6094;BME280;19964;42.060;24.700;2023-07-22T02:25:28;97429.06;;;22.10;93.39
6094;BME280;19964;42.060;24.700;2023-07-22T02:27:55;97420.50;;;22.04;94.31
6094;BME280;19964;42.060;24.700;2023-07-22T02:30:21;97433.94;;;22.17;93.80
6094;BME280;19964;42.060;24.700;2023-07-22T02:32:49;97435.75;;;22.07;94.36
6094;BME280;19964;42.060;24.700;2023-07-22T02:35:16;97454.47;;;22.20;94.31
6094;BME280;19964;42.060;24.700;2023-07-22T02:37:43;97457.78;;;21.89;95.24
6094;BME280;19964;42.060;24.700;2023-07-22T02:40:10;97453.47;;;21.93;95.47
6094;BME280;19964;42.060;24.700;2023-07-22T02:42:37;97438.97;;;21.82;96.63
6094;BME280;19964;42.060;24.700;2023-07-22T02:45:03;97442.47;;;21.78;97.53
6094;BME280;19964;42.060;24.700;2023-07-22T02:47:32;97439.81;;;21.78;97.10
6094;BME280;19964;42.060;24.700;2023-07-22T02:50:00;97421.69;;;21.63;98.90
6094;BME280;19964;42.060;24.700;2023-07-22T02:52:28;97432.25;;;21.63;99.39
6094;BME280;19964;42.060;24.700;2023-07-22T02:55:06;97434.59;;;21.64;99.41
6094;BME280;19964;42.060;24.700;2023-07-22T02:57:33;97427.00;;;21.49;100.00
6094;BME280;19964;42.060;24.700;2023-07-22T03:00:02;97432.06;;;21.46;100.00
6094;BME280;19964;42.060;24.700;2023-07-22T03:02:32;97428.47;;;21.55;100.00
6094;BME280;19964;42.060;24.700;2023-07-22T03:04:59;97428.16;;;21.57;100.00
6094;BME280;19964;42.060;24.700;2023-07-22T03:07:26;97437.78;;;21.61;100.00
6094;BME280;19964;42.060;24.700;2023-07-22T03:09:53;97434.00;;;21.54;100.00
6094;BME280;19964;42.060;24.700;2023-07-22T03:12:20;97437.03;;;21.61;100.00
6094;BME280;19964;42.060;24.700;2023-07-22T03:14:46;97430.50;;;21.45;100.00
6094;BME280;19964;42.060;24.700;2023-07-22T03:17:14;97436.28;;;21.47;100.00
6094;BME280;19964;42.060;24.700;2023-07-22T03:19:42;97436.47;;;21.37;100.00
6094;BME280;19964;42.060;24.700;2023-07-22T03:22:08;97433.81;;;21.50;100.00
6094;BME280;19964;42.060;24.700;2023-07-22T03:24:37;97418.66;;;21.56;100.00
6094;BME280;19964;42.060;24.700;2023-07-22T03:27:03;97413.00;;;21.62;100.00
6094;BME280;19964;42.060;24.700;2023-07-22T03:29:31;97411.88;;;21.77;100.00
6094;BME280;19964;42.060;24.700;2023-07-22T03:31:58;97405.38;;;21.96;100.00
6094;BME280;19964;42.060;24.700;2023-07-22T03:34:26;97408.75;;;22.10;99.37
6094;BME280;19964;42.060;24.700;2023-07-22T03:36:53;97420.84;;;22.34;98.09
6094;BME280;19964;42.060;24.700;2023-07-22T03:39:20;97414.03;;;22.41;97.22
6094;BME280;19964;42.060;24.700;2023-07-22T03:41:48;97419.75;;;22.57;96.20
6094;BME280;19964;42.060;24.700;2023-07-22T03:44:14;97424.69;;;22.80;94.31
6094;BME280;19964;42.060;24.700;2023-07-22T03:46:41;97426.31;;;22.98;93.66
6094;BME280;19964;42.060;24.700;2023-07-22T03:49:07;97436.66;;;23.26;91.96
6094;BME280;19964;42.060;24.700;2023-07-22T03:51:34;97440.50;;;23.59;89.69
6094;BME280;19964;42.060;24.700;2023-07-22T03:54:01;97450.31;;;23.75;88.84
6094;BME280;19964;42.060;24.700;2023-07-22T03:56:27;97447.88;;;24.05;87.61
6094;BME280;19964;42.060;24.700;2023-07-22T03:58:55;97442.56;;;24.05;86.45
6094;BME280;19964;42.060;24.700;2023-07-22T04:01:22;97440.69;;;24.14;86.25
6094;BME280;19964;42.060;24.700;2023-07-22T04:03:48;97436.94;;;24.23;85.79
6094;BME280;19964;42.060;24.700;2023-07-22T04:06:15;97448.56;;;24.48;84.62
6094;BME280;19964;42.060;24.700;2023-07-22T04:08:41;97456.50;;;24.73;83.87
6094;BME280;19964;42.060;24.700;2023-07-22T04:11:09;97459.66;;;25.05;82.29
6094;BME280;19964;42.060;24.700;2023-07-22T04:13:35;97463.34;;;25.12;81.44
6094;BME280;19964;42.060;24.700;2023-07-22T04:16:03;97468.38;;;25.14;81.00
6094;BME280;19964;42.060;24.700;2023-07-22T04:18:30;97463.88;;;25.35;79.58
6094;BME280;19964;42.060;24.700;2023-07-22T04:20:59;97461.69;;;25.37;79.71
6094;BME280;19964;42.060;24.700;2023-07-22T04:23:26;97461.63;;;25.54;79.53
6094;BME280;19964;42.060;24.700;2023-07-22T04:25:53;97461.03;;;25.69;77.90
6094;BME280;19964;42.060;24.700;2023-07-22T04:28:20;97466.03;;;25.91;77.15
6094;BME280;19964;42.060;24.700;2023-07-22T04:30:54;97470.63;;;26.23;75.40
6094;BME280;19964;42.060;24.700;2023-07-22T04:33:22;97468.03;;;25.94;76.19
6094;BME280;19964;42.060;24.700;2023-07-22T04:35:49;97455.50;;;26.03;76.39
6094;BME280;19964;42.060;24.700;2023-07-22T04:38:16;97464.84;;;26.42;75.19
6094;BME280;19964;42.060;24.700;2023-07-22T04:40:42;97474.97;;;26.61;74.06
6094;BME280;19964;42.060;24.700;2023-07-22T04:43:10;97458.13;;;26.03;74.77
6094;BME280;19964;42.060;24.700;2023-07-22T04:45:37;97480.25;;;26.16;75.91
6094;BME280;19964;42.060;24.700;2023-07-22T04:48:05;97467.63;;;26.78;74.23
6094;BME280;19964;42.060;24.700;2023-07-22T04:50:34;97477.63;;;27.05;73.02
6094;BME280;19964;42.060;24.700;2023-07-22T04:53:00;97472.00;;;27.43;71.94
6094;BME280;19964;42.060;24.700;2023-07-22T04:55:27;97473.25;;;27.34;68.93
6094;BME280;19964;42.060;24.700;2023-07-22T04:57:55;97473.44;;;27.16;69.48
6094;BME280;19964;42.060;24.700;2023-07-22T05:00:21;97474.38;;;26.88;70.04
6094;BME280;19964;42.060;24.700;2023-07-22T05:02:48;97464.66;;;26.80;70.63
6094;BME280;19964;42.060;24.700;2023-07-22T05:05:17;97470.31;;;26.58;72.36
6094;BME280;19964;42.060;24.700;2023-07-22T05:07:45;97473.97;;;26.98;71.21
6094;BME280;19964;42.060;24.700;2023-07-22T05:10:13;97478.22;;;27.11;69.46
6094;BME280;19964;42.060;24.700;2023-07-22T05:12:40;97472.31;;;26.93;70.50
6094;BME280;19964;42.060;24.700;2023-07-22T05:15:07;97464.97;;;26.90;71.47
6094;BME280;19964;42.060;24.700;2023-07-22T05:17:34;97466.63;;;26.71;71.36
6094;BME280;19964;42.060;24.700;2023-07-22T05:20:00;97469.66;;;27.17;70.40
6094;BME280;19964;42.060;24.700;2023-07-22T05:22:29;97476.09;;;27.16;69.18
6094;BME280;19964;42.060;24.700;2023-07-22T05:24:56;97472.31;;;27.29;69.81
6094;BME280;19964;42.060;24.700;2023-07-22T05:27:23;97480.41;;;27.81;67.48
6094;BME280;19964;42.060;24.700;2023-07-22T05:29:50;97478.22;;;27.35;69.07
6094;BME280;19964;42.060;24.700;2023-07-22T05:32:16;97483.16;;;27.85;67.57
6094;BME280;19964;42.060;24.700;2023-07-22T05:34:43;97482.84;;;27.74;66.11
6094;BME280;19964;42.060;24.700;2023-07-22T05:37:10;97484.19;;;27.68;67.16
6094;BME280;19964;42.060;24.700;2023-07-22T05:39:36;97485.75;;;28.21;66.80
6094;BME280;19964;42.060;24.700;2023-07-22T05:42:08;97489.06;;;28.73;64.73
6094;BME280;19964;42.060;24.700;2023-07-22T05:44:35;97474.66;;;29.06;64.09
6094;BME280;19964;42.060;24.700;2023-07-22T05:47:01;97488.69;;;29.18;62.63
6094;BME280;19964;42.060;24.700;2023-07-22T05:49:28;97482.75;;;29.09;62.98
6094;BME280;19964;42.060;24.700;2023-07-22T05:51:55;97479.59;;;29.19;62.67
6094;BME280;19964;42.060;24.700;2023-07-22T05:54:22;97484.47;;;29.48;63.83
6094;BME280;19964;42.060;24.700;2023-07-22T05:56:48;97483.53;;;29.41;61.58
6094;BME280;19964;42.060;24.700;2023-07-22T05:59:17;97478.09;;;29.53;62.60
6094;BME280;19964;42.060;24.700;2023-07-22T06:01:43;97470.28;;;29.63;60.70
6094;BME280;19964;42.060;24.700;2023-07-22T06:04:10;97476.28;;;29.92;59.70
6094;BME280;19964;42.060;24.700;2023-07-22T06:06:37;97483.97;;;29.43;61.37
6094;BME280;19964;42.060;24.700;2023-07-22T06:09:03;97486.44;;;29.04;63.01
6094;BME280;19964;42.060;24.700;2023-07-22T06:11:30;97479.13;;;29.01;63.49
6094;BME280;19964;42.060;24.700;2023-07-22T06:13:57;97483.91;;;29.24;61.72
6094;BME280;19964;42.060;24.700;2023-07-22T06:16:25;97479.38;;;29.59;61.96
6094;BME280;19964;42.060;24.700;2023-07-22T06:18:51;97469.09;;;29.61;62.25
6094;BME280;19964;42.060;24.700;2023-07-22T06:21:18;97474.38;;;29.42;61.91
6094;BME280;19964;42.060;24.700;2023-07-22T06:23:44;97466.56;;;29.83;60.67
6094;BME280;19964;42.060;24.700;2023-07-22T06:26:11;97471.56;;;30.23;59.91
6094;BME280;19964;42.060;24.700;2023-07-22T06:28:38;97465.47;;;29.53;61.57
6094;BME280;19964;42.060;24.700;2023-07-22T06:31:04;97457.69;;;29.45;62.26
6094;BME280;19964;42.060;24.700;2023-07-22T06:33:32;97458.97;;;29.85;60.79
6094;BME280;19964;42.060;24.700;2023-07-22T06:35:59;97475.28;;;30.57;59.29
6094;BME280;19964;42.060;24.700;2023-07-22T06:38:25;97470.94;;;29.92;60.05
6094;BME280;19964;42.060;24.700;2023-07-22T06:40:52;97478.97;;;30.30;59.10
6094;BME280;19964;42.060;24.700;2023-07-22T06:43:18;97474.50;;;29.99;58.78
6094;BME280;19964;42.060;24.700;2023-07-22T06:45:45;97476.50;;;30.40;58.76
6094;BME280;19964;42.060;24.700;2023-07-22T06:48:12;97483.66;;;30.78;57.84
6094;BME280;19964;42.060;24.700;2023-07-22T06:50:40;97478.19;;;30.29;60.23
6094;BME280;19964;42.060;24.700;2023-07-22T06:53:06;97468.31;;;29.95;59.83
6094;BME280;19964;42.060;24.700;2023-07-22T06:55:34;97480.59;;;29.80;59.91
6094;BME280;19964;42.060;24.700;2023-07-22T06:58:01;97485.22;;;30.37;59.83
6094;BME280;19964;42.060;24.700;2023-07-22T07:00:28;97488.66;;;30.19;58.58
6094;BME280;19964;42.060;24.700;2023-07-22T07:02:55;97494.81;;;30.38;59.48
6094;BME280;19964;42.060;24.700;2023-07-22T07:05:22;97488.84;;;30.87;58.48
6094;BME280;19964;42.060;24.700;2023-07-22T07:07:50;97498.47;;;31.14;55.22
6094;BME280;19964;42.060;24.700;2023-07-22T07:10:17;97490.94;;;31.23;56.42
6094;BME280;19964;42.060;24.700;2023-07-22T07:12:44;97484.53;;;31.27;56.28
6094;BME280;19964;42.060;24.700;2023-07-22T07:15:11;97484.78;;;31.68;54.61
6094;BME280;19964;42.060;24.700;2023-07-22T07:17:40;97475.72;;;32.05;53.50
6094;BME280;19964;42.060;24.700;2023-07-22T07:20:08;97467.00;;;32.45;53.35
6094;BME280;19964;42.060;24.700;2023-07-22T07:22:35;97476.25;;;32.48;53.50
6094;BME280;19964;42.060;24.700;2023-07-22T07:25:03;97479.16;;;32.39;52.66
6094;BME280;19964;42.060;24.700;2023-07-22T07:27:30;97465.44;;;31.81;54.68
6094;BME280;19964;42.060;24.700;2023-07-22T07:29:57;97478.09;;;32.43;53.03
6094;BME280;19964;42.060;24.700;2023-07-22T07:32:24;97486.09;;;31.81;53.94
6094;BME280;19964;42.060;24.700;2023-07-22T07:34:51;97476.50;;;31.80;55.28
6094;BME280;19964;42.060;24.700;2023-07-22T07:37:18;97476.69;;;32.53;54.76
6094;BME280;19964;42.060;24.700;2023-07-22T07:39:45;97482.09;;;31.94;54.05
6094;BME280;19964;42.060;24.700;2023-07-22T07:42:13;97483.75;;;32.05;54.22
6094;BME280;19964;42.060;24.700;2023-07-22T07:44:40;97477.16;;;31.43;55.02
6094;BME280;19964;42.060;24.700;2023-07-22T07:47:07;97475.25;;;31.21;54.76
6094;BME280;19964;42.060;24.700;2023-07-22T07:49:33;97483.69;;;31.98;52.55
6094;BME280;19964;42.060;24.700;2023-07-22T07:52:00;97484.06;;;32.63;53.10
6094;BME280;19964;42.060;24.700;2023-07-22T07:54:27;97483.25;;;32.96;51.38
6094;BME280;19964;42.060;24.700;2023-07-22T07:56:54;97497.25;;;33.19;50.86
6094;BME280;19964;42.060;24.700;2023-07-22T07:59:23;97499.53;;;33.17;51.24
6094;BME280;19964;42.060;24.700;2023-07-22T08:01:49;97504.44;;;33.08;50.60
6094;BME280;19964;42.060;24.700;2023-07-22T08:04:16;97472.66;;;32.40;51.13
6094;BME280;19964;42.060;24.700;2023-07-22T08:06:43;97509.97;;;32.49;52.36
6094;BME280;19964;42.060;24.700;2023-07-22T08:09:10;97503.75;;;32.78;52.04
6094;BME280;19964;42.060;24.700;2023-07-22T08:11:43;97508.13;;;33.37;49.56
6094;BME280;19964;42.060;24.700;2023-07-22T08:14:10;97506.03;;;33.67;48.78
6094;BME280;19964;42.060;24.700;2023-07-22T08:16:38;97505.22;;;34.24;50.00
6094;BME280;19964;42.060;24.700;2023-07-22T08:19:04;97506.84;;;34.46;46.48
6094;BME280;19964;42.060;24.700;2023-07-22T08:21:31;97508.69;;;34.25;47.95
6094;BME280;19964;42.060;24.700;2023-07-22T08:23:58;97499.03;;;34.20;49.34
6094;BME280;19964;42.060;24.700;2023-07-22T08:26:24;97499.63;;;34.92;46.90
6094;BME280;19964;42.060;24.700;2023-07-22T08:28:51;97491.53;;;34.68;47.57
6094;BME280;19964;42.060;24.700;2023-07-22T08:31:17;97497.72;;;34.89;46.75
6094;BME280;19964;42.060;24.700;2023-07-22T08:33:45;97492.09;;;34.12;47.59
6094;BME280;19964;42.060;24.700;2023-07-22T08:36:12;97482.31;;;32.85;50.50
6094;BME280;19964;42.060;24.700;2023-07-22T08:38:39;97475.34;;;33.13;49.33
6094;BME280;19964;42.060;24.700;2023-07-22T08:41:05;97475.00;;;33.22;49.36
6094;BME280;19964;42.060;24.700;2023-07-22T08:43:32;97474.91;;;33.59;50.25
6094;BME280;19964;42.060;24.700;2023-07-22T08:46:00;97473.44;;;33.72;49.81
6094;BME280;19964;42.060;24.700;2023-07-22T08:48:27;97473.88;;;33.84;49.80
6094;BME280;19964;42.060;24.700;2023-07-22T08:50:59;97470.16;;;34.10;48.57
6094;BME280;19964;42.060;24.700;2023-07-22T08:53:28;97460.31;;;34.53;47.43
6094;BME280;19964;42.060;24.700;2023-07-22T08:55:55;97457.31;;;35.28;47.55
6094;BME280;19964;42.060;24.700;2023-07-22T08:58:22;97456.94;;;35.12;48.35
6094;BME280;19964;42.060;24.700;2023-07-22T09:00:50;97456.53;;;34.71;48.08
6094;BME280;19964;42.060;24.700;2023-07-22T09:03:18;97459.59;;;34.80;46.84
6094;BME280;19964;42.060;24.700;2023-07-22T09:05:45;97459.47;;;34.24;46.85
6094;BME280;19964;42.060;24.700;2023-07-22T09:08:14;97460.97;;;34.15;48.88
6094;BME280;19964;42.060;24.700;2023-07-22T09:10:42;97461.88;;;34.57;48.37
6094;BME280;19964;42.060;24.700;2023-07-22T09:13:09;97465.78;;;35.02;46.03
6094;BME280;19964;42.060;24.700;2023-07-22T09:15:36;97457.38;;;33.89;47.60
6094;BME280;19964;42.060;24.700;2023-07-22T09:18:03;97453.44;;;34.94;47.74
6094;BME280;19964;42.060;24.700;2023-07-22T09:20:30;97456.94;;;35.19;46.14
6094;BME280;19964;42.060;24.700;2023-07-22T09:22:57;97456.94;;;34.87;46.74
6094;BME280;19964;42.060;24.700;2023-07-22T09:25:26;97461.53;;;35.40;44.74
6094;BME280;19964;42.060;24.700;2023-07-22T09:27:54;97458.44;;;35.31;44.75
6094;BME280;19964;42.060;24.700;2023-07-22T09:30:21;97452.31;;;35.09;46.56
6094;BME280;19964;42.060;24.700;2023-07-22T09:32:48;97449.22;;;35.32;47.45
6094;BME280;19964;42.060;24.700;2023-07-22T09:35:15;97444.94;;;34.50;46.32
6094;BME280;19964;42.060;24.700;2023-07-22T09:37:42;97433.41;;;35.44;45.45
6094;BME280;19964;42.060;24.700;2023-07-22T09:40:17;97430.19;;;36.02;45.85
6094;BME280;19964;42.060;24.700;2023-07-22T09:42:50;97430.41;;;36.91;42.26
6094;BME280;19964;42.060;24.700;2023-07-22T09:45:17;97415.69;;;36.47;42.28
6094;BME280;19964;42.060;24.700;2023-07-22T09:47:46;97414.94;;;36.43;43.58
6094;BME280;19964;42.060;24.700;2023-07-22T09:50:15;97427.28;;;35.47;43.86
6094;BME280;19964;42.060;24.700;2023-07-22T09:52:48;97424.00;;;36.02;42.67
6094;BME280;19964;42.060;24.700;2023-07-22T09:55:16;97416.13;;;36.39;43.00
6094;BME280;19964;42.060;24.700;2023-07-22T09:57:45;97369.94;;;36.74;42.03
6094;BME280;19964;42.060;24.700;2023-07-22T10:00:15;97419.44;;;37.53;41.93
6094;BME280;19964;42.060;24.700;2023-07-22T10:02:47;97394.19;;;36.30;42.26
6094;BME280;19964;42.060;24.700;2023-07-22T10:05:15;97407.13;;;35.76;43.36
6094;BME280;19964;42.060;24.700;2023-07-22T10:07:44;97402.28;;;36.85;45.13
6094;BME280;19964;42.060;24.700;2023-07-22T10:10:12;97399.72;;;36.02;42.29
6094;BME280;19964;42.060;24.700;2023-07-22T10:12:41;97387.28;;;36.22;43.60
6094;BME280;19964;42.060;24.700;2023-07-22T10:15:10;97381.94;;;36.70;42.83
6094;BME280;19964;42.060;24.700;2023-07-22T10:17:39;97347.75;;;36.52;41.83
6094;BME280;19964;42.060;24.700;2023-07-22T10:20:07;97377.84;;;35.78;42.65
6094;BME280;19964;42.060;24.700;2023-07-22T10:22:41;97385.50;;;35.94;42.83
6094;BME280;19964;42.060;24.700;2023-07-22T10:25:08;97379.88;;;36.33;44.79
6094;BME280;19964;42.060;24.700;2023-07-22T10:27:36;97348.31;;;36.23;42.52
6094;BME280;19964;42.060;24.700;2023-07-22T10:30:07;97390.59;;;36.50;42.56
6094;BME280;19964;42.060;24.700;2023-07-22T10:32:36;97380.38;;;36.72;41.60
6094;BME280;19964;42.060;24.700;2023-07-22T10:35:08;97390.66;;;36.91;42.19
6094;BME280;19964;42.060;24.700;2023-07-22T10:37:37;97387.56;;;36.34;41.62
6094;BME280;19964;42.060;24.700;2023-07-22T10:40:18;97376.56;;;36.66;41.98
6094;BME280;19964;42.060;24.700;2023-07-22T10:42:54;97369.78;;;36.95;40.04
6094;BME280;19964;42.060;24.700;2023-07-22T10:45:25;97377.31;;;37.14;40.54
6094;BME280;19964;42.060;24.700;2023-07-22T10:48:06;97377.56;;;37.27;43.12
6094;BME280;19964;42.060;24.700;2023-07-22T10:50:41;97344.63;;;37.02;39.08
6094;BME280;19964;42.060;24.700;2023-07-22T10:53:13;97359.63;;;37.06;39.01
6094;BME280;19964;42.060;24.700;2023-07-22T10:56:11;97365.00;;;37.81;38.83
6094;BME280;19964;42.060;24.700;2023-07-22T10:58:57;97360.19;;;37.62;38.17
6094;BME280;19964;42.060;24.700;2023-07-22T11:01:24;97367.22;;;37.89;36.41
6094;BME280;19964;42.060;24.700;2023-07-22T11:04:13;97347.19;;;37.49;38.27
6094;BME280;19964;42.060;24.700;2023-07-22T11:06:55;97344.75;;;37.62;37.62
6094;BME280;19964;42.060;24.700;2023-07-22T11:09:40;97294.56;;;37.24;38.36
6094;BME280;19964;42.060;24.700;2023-07-22T11:12:15;97331.69;;;37.54;37.16
6094;BME280;19964;42.060;24.700;2023-07-22T11:14:47;97315.28;;;37.68;38.51
6094;BME280;19964;42.060;24.700;2023-07-22T11:17:14;97339.75;;;37.57;37.61
6094;BME280;19964;42.060;24.700;2023-07-22T11:19:41;97331.28;;;37.21;37.97
6094;BME280;19964;42.060;24.700;2023-07-22T11:22:09;97284.13;;;36.89;38.81
6094;BME280;19964;42.060;24.700;2023-07-22T11:24:36;97326.50;;;36.99;38.76
6094;BME280;19964;42.060;24.700;2023-07-22T11:27:04;97262.75;;;36.64;39.86
6094;BME280;19964;42.060;24.700;2023-07-22T11:29:32;97326.53;;;37.32;39.85
6094;BME280;19964;42.060;24.700;2023-07-22T11:31:59;97318.00;;;37.00;39.14
6094;BME280;19964;42.060;24.700;2023-07-22T11:34:26;97313.13;;;37.56;40.16
6094;BME280;19964;42.060;24.700;2023-07-22T11:36:54;97312.31;;;37.89;41.62
6094;BME280;19964;42.060;24.700;2023-07-22T11:39:24;97315.94;;;37.48;39.63
6094;BME280;19964;42.060;24.700;2023-07-22T11:41:52;97309.16;;;37.30;40.53
6094;BME280;19964;42.060;24.700;2023-07-22T11:44:20;97253.81;;;37.08;38.27
6094;BME280;19964;42.060;24.700;2023-07-22T11:46:52;97297.03;;;37.45;40.33
6094;BME280;19964;42.060;24.700;2023-07-22T11:49:27;97297.97;;;37.62;38.95
6094;BME280;19964;42.060;24.700;2023-07-22T11:51:55;97294.41;;;37.38;39.63
6094;BME280;19964;42.060;24.700;2023-07-22T11:54:27;97306.94;;;36.88;40.60
6094;BME280;19964;42.060;24.700;2023-07-22T11:56:55;97299.28;;;37.16;40.62
6094;BME280;19964;42.060;24.700;2023-07-22T11:59:35;97301.09;;;37.26;38.59
6094;BME280;19964;42.060;24.700;2023-07-22T12:02:03;97298.38;;;37.26;39.67
6094;BME280;19964;42.060;24.700;2023-07-22T12:04:31;97297.06;;;37.08;38.81
6094;BME280;19964;42.060;24.700;2023-07-22T12:06:58;97294.38;;;37.41;38.53
6094;BME280;19964;42.060;24.700;2023-07-22T12:09:27;97296.47;;;37.61;39.54
6094;BME280;19964;42.060;24.700;2023-07-22T12:11:58;97286.94;;;36.78;38.59
6094;BME280;19964;42.060;24.700;2023-07-22T12:14:33;97289.31;;;37.10;38.60
6094;BME280;19964;42.060;24.700;2023-07-22T12:17:01;97282.66;;;37.18;38.62
6094;BME280;19964;42.060;24.700;2023-07-22T12:19:29;97292.84;;;37.40;37.74
6094;BME280;19964;42.060;24.700;2023-07-22T12:21:56;97290.94;;;37.37;38.76
6094;BME280;19964;42.060;24.700;2023-07-22T12:24:23;97287.66;;;36.86;40.10
6094;BME280;19964;42.060;24.700;2023-07-22T12:26:52;97285.59;;;36.97;38.05
6094;BME280;19964;42.060;24.700;2023-07-22T12:29:19;97291.66;;;37.41;38.44
6094;BME280;19964;42.060;24.700;2023-07-22T12:31:47;97282.81;;;37.41;38.66
6094;BME280;19964;42.060;24.700;2023-07-22T12:34:14;97302.22;;;37.32;38.83
6094;BME280;19964;42.060;24.700;2023-07-22T12:36:41;97286.38;;;37.61;37.79
6094;BME280;19964;42.060;24.700;2023-07-22T12:39:08;97284.19;;;37.53;37.54
6094;BME280;19964;42.060;24.700;2023-07-22T12:41:35;97291.13;;;37.84;36.13
6094;BME280;19964;42.060;24.700;2023-07-22T12:44:03;97280.19;;;37.30;37.68
6094;BME280;19964;42.060;24.700;2023-07-22T12:46:30;97200.34;;;36.55;37.51
6094;BME280;19964;42.060;24.700;2023-07-22T12:48:57;97277.25;;;37.52;36.40
6094;BME280;19964;42.060;24.700;2023-07-22T12:51:24;97279.81;;;37.62;36.42
6094;BME280;19964;42.060;24.700;2023-07-22T12:53:51;97273.25;;;37.90;35.39
6094;BME280;19964;42.060;24.700;2023-07-22T12:56:18;97269.38;;;37.91;37.50
6094;BME280;19964;42.060;24.700;2023-07-22T12:58:44;97269.97;;;37.75;36.60
6094;BME280;19964;42.060;24.700;2023-07-22T13:01:13;97266.28;;;37.62;37.84
6094;BME280;19964;42.060;24.700;2023-07-22T13:03:40;97218.66;;;37.68;36.57